sensor_id;sensor_type;location;lat;lon;timestamp;P1;durP1;ratioP1;P2;durP2;ratioP2
70335;SDS011;57756;47.408;18.940;2022-07-23T00:01:16;6.43;;;4.73;;
70335;SDS011;57756;47.408;18.940;2022-07-23T00:03:41;7.57;;;4.23;;
70335;SDS011;57756;47.408;18.940;2022-07-23T00:06:07;9.90;;;4.57;;
70335;SDS011;57756;47.408;18.940;2022-07-23T00:08:33;6.43;;;4.00;;
70335;SDS011;57756;47.408;18.940;2022-07-23T00:10:58;11.27;;;4.50;;
70335;SDS011;57756;47.408;18.940;2022-07-23T00:13:24;10.73;;;4.53;;
70335;SDS011;57756;47.408;18.940;2022-07-23T00:15:49;5.90;;;4.00;;
70335;SDS011;57756;47.408;18.940;2022-07-23T00:18:15;6.70;;;4.50;;
70335;SDS011;57756;47.408;18.940;2022-07-23T00:20:40;7.53;;;4.20;;
70335;SDS011;57756;47.408;18.940;2022-07-23T00:23:06;6.40;;;4.27;;
70335;SDS011;57756;47.408;18.940;2022-07-23T00:25:31;6.03;;;4.17;;
70335;SDS011;57756;47.408;18.940;2022-07-23T00:27:58;8.07;;;4.40;;
70335;SDS011;57756;47.408;18.940;2022-07-23T00:30:24;7.82;;;4.43;;
70335;SDS011;57756;47.408;18.940;2022-07-23T00:32:51;8.10;;;4.57;;
70335;SDS011;57756;47.408;18.940;2022-07-23T00:35:21;9.10;;;4.03;;
70335;SDS011;57756;47.408;18.940;2022-07-23T00:37:48;6.50;;;4.18;;
70335;SDS011;57756;47.408;18.940;2022-07-23T00:40:14;9.80;;;4.32;;
70335;SDS011;57756;47.408;18.940;2022-07-23T00:42:40;8.90;;;4.30;;
70335;SDS011;57756;47.408;18.940;2022-07-23T00:45:05;12.85;;;5.28;;
70335;SDS011;57756;47.408;18.940;2022-07-23T00:47:31;11.82;;;5.30;;
70335;SDS011;57756;47.408;18.940;2022-07-23T00:49:57;11.13;;;4.67;;
70335;SDS011;57756;47.408;18.940;2022-07-23T00:52:23;11.13;;;5.43;;
70335;SDS011;57756;47.408;18.940;2022-07-23T00:54:48;8.73;;;5.27;;
70335;SDS011;57756;47.408;18.940;2022-07-23T00:57:14;9.88;;;5.50;;
70335;SDS011;57756;47.408;18.940;2022-07-23T00:59:40;9.45;;;5.07;;
70335;SDS011;57756;47.408;18.940;2022-07-23T01:02:07;8.33;;;5.20;;
70335;SDS011;57756;47.408;18.940;2022-07-23T01:04:32;8.95;;;4.93;;
70335;SDS011;57756;47.408;18.940;2022-07-23T01:06:58;9.70;;;5.50;;
70335;SDS011;57756;47.408;18.940;2022-07-23T01:09:24;6.77;;;4.90;;
70335;SDS011;57756;47.408;18.940;2022-07-23T01:11:51;8.07;;;5.38;;
70335;SDS011;57756;47.408;18.940;2022-07-23T01:14:17;8.20;;;5.40;;
70335;SDS011;57756;47.408;18.940;2022-07-23T01:16:44;8.80;;;5.22;;
70335;SDS011;57756;47.408;18.940;2022-07-23T01:19:11;9.40;;;5.33;;
70335;SDS011;57756;47.408;18.940;2022-07-23T01:21:41;7.57;;;5.13;;
70335;SDS011;57756;47.408;18.940;2022-07-23T01:24:09;7.97;;;4.97;;
70335;SDS011;57756;47.408;18.940;2022-07-23T01:26:35;10.95;;;5.28;;
70335;SDS011;57756;47.408;18.940;2022-07-23T01:29:02;9.73;;;5.50;;
70335;SDS011;57756;47.408;18.940;2022-07-23T01:31:28;9.50;;;5.22;;
70335;SDS011;57756;47.408;18.940;2022-07-23T01:33:53;8.55;;;5.38;;
70335;SDS011;57756;47.408;18.940;2022-07-23T01:36:19;8.30;;;5.40;;
70335;SDS011;57756;47.408;18.940;2022-07-23T01:38:44;9.10;;;5.13;;
70335;SDS011;57756;47.408;18.940;2022-07-23T01:41:10;10.88;;;4.97;;
70335;SDS011;57756;47.408;18.940;2022-07-23T01:43:35;10.50;;;5.07;;
70335;SDS011;57756;47.408;18.940;2022-07-23T01:46:01;9.35;;;5.15;;
70335;SDS011;57756;47.408;18.940;2022-07-23T01:48:27;11.40;;;5.60;;
70335;SDS011;57756;47.408;18.940;2022-07-23T01:50:52;8.37;;;5.67;;
70335;SDS011;57756;47.408;18.940;2022-07-23T01:53:18;8.07;;;5.35;;
70335;SDS011;57756;47.408;18.940;2022-07-23T01:55:43;8.60;;;5.33;;
70335;SDS011;57756;47.408;18.940;2022-07-23T01:58:09;12.93;;;5.82;;
70335;SDS011;57756;47.408;18.940;2022-07-23T02:00:35;11.60;;;6.40;;
70335;SDS011;57756;47.408;18.940;2022-07-23T02:03:01;12.25;;;6.10;;
70335;SDS011;57756;47.408;18.940;2022-07-23T02:05:26;12.07;;;5.80;;
70335;SDS011;57756;47.408;18.940;2022-07-23T02:07:53;15.50;;;6.25;;
70335;SDS011;57756;47.408;18.940;2022-07-23T02:10:20;18.77;;;6.63;;
70335;SDS011;57756;47.408;18.940;2022-07-23T02:12:46;16.23;;;5.47;;
70335;SDS011;57756;47.408;18.940;2022-07-23T02:15:11;8.30;;;4.97;;
70335;SDS011;57756;47.408;18.940;2022-07-23T02:17:37;16.05;;;5.38;;
70335;SDS011;57756;47.408;18.940;2022-07-23T02:20:03;16.37;;;6.20;;
70335;SDS011;57756;47.408;18.940;2022-07-23T02:22:29;11.30;;;5.28;;
70335;SDS011;57756;47.408;18.940;2022-07-23T02:24:54;15.53;;;6.33;;
70335;SDS011;57756;47.408;18.940;2022-07-23T02:27:20;13.60;;;6.07;;
70335;SDS011;57756;47.408;18.940;2022-07-23T02:29:46;19.25;;;6.45;;
70335;SDS011;57756;47.408;18.940;2022-07-23T02:32:12;11.90;;;6.53;;
70335;SDS011;57756;47.408;18.940;2022-07-23T02:34:37;16.80;;;6.57;;
70335;SDS011;57756;47.408;18.940;2022-07-23T02:37:03;12.07;;;6.10;;
70335;SDS011;57756;47.408;18.940;2022-07-23T02:39:28;14.93;;;6.50;;
70335;SDS011;57756;47.408;18.940;2022-07-23T02:41:54;10.82;;;5.82;;
70335;SDS011;57756;47.408;18.940;2022-07-23T02:44:19;8.40;;;5.17;;
70335;SDS011;57756;47.408;18.940;2022-07-23T02:46:45;10.90;;;5.43;;
70335;SDS011;57756;47.408;18.940;2022-07-23T02:49:10;12.65;;;5.47;;
70335;SDS011;57756;47.408;18.940;2022-07-23T02:51:36;10.27;;;5.40;;
70335;SDS011;57756;47.408;18.940;2022-07-23T02:54:01;8.83;;;5.60;;
70335;SDS011;57756;47.408;18.940;2022-07-23T02:56:27;8.40;;;5.03;;
70335;SDS011;57756;47.408;18.940;2022-07-23T02:58:52;8.87;;;5.27;;
70335;SDS011;57756;47.408;18.940;2022-07-23T03:01:18;8.50;;;5.60;;
70335;SDS011;57756;47.408;18.940;2022-07-23T03:03:43;9.77;;;4.82;;
70335;SDS011;57756;47.408;18.940;2022-07-23T03:06:09;9.17;;;5.43;;
70335;SDS011;57756;47.408;18.940;2022-07-23T03:08:34;9.33;;;5.70;;
70335;SDS011;57756;47.408;18.940;2022-07-23T03:11:00;11.50;;;5.65;;
70335;SDS011;57756;47.408;18.940;2022-07-23T03:13:25;8.07;;;5.27;;
70335;SDS011;57756;47.408;18.940;2022-07-23T03:15:51;9.33;;;5.10;;
70335;SDS011;57756;47.408;18.940;2022-07-23T03:18:16;11.07;;;5.90;;
70335;SDS011;57756;47.408;18.940;2022-07-23T03:20:42;10.77;;;5.80;;
70335;SDS011;57756;47.408;18.940;2022-07-23T03:23:07;8.63;;;5.60;;
70335;SDS011;57756;47.408;18.940;2022-07-23T03:25:33;15.35;;;6.13;;
70335;SDS011;57756;47.408;18.940;2022-07-23T03:27:58;31.43;;;8.07;;
70335;SDS011;57756;47.408;18.940;2022-07-23T03:30:24;12.50;;;6.97;;
70335;SDS011;57756;47.408;18.940;2022-07-23T03:32:49;10.15;;;5.47;;
70335;SDS011;57756;47.408;18.940;2022-07-23T03:35:15;8.07;;;5.30;;
70335;SDS011;57756;47.408;18.940;2022-07-23T03:37:40;20.90;;;6.57;;
70335;SDS011;57756;47.408;18.940;2022-07-23T03:40:06;23.60;;;7.67;;
70335;SDS011;57756;47.408;18.940;2022-07-23T03:42:32;18.52;;;6.65;;
70335;SDS011;57756;47.408;18.940;2022-07-23T03:44:57;9.00;;;5.50;;
70335;SDS011;57756;47.408;18.940;2022-07-23T03:47:23;9.97;;;6.10;;
70335;SDS011;57756;47.408;18.940;2022-07-23T03:49:48;10.98;;;5.30;;
70335;SDS011;57756;47.408;18.940;2022-07-23T03:52:15;7.70;;;5.07;;
70335;SDS011;57756;47.408;18.940;2022-07-23T03:54:41;10.38;;;5.50;;
70335;SDS011;57756;47.408;18.940;2022-07-23T03:57:06;11.37;;;5.70;;
70335;SDS011;57756;47.408;18.940;2022-07-23T03:59:32;10.80;;;5.53;;
70335;SDS011;57756;47.408;18.940;2022-07-23T04:01:58;12.10;;;6.00;;
70335;SDS011;57756;47.408;18.940;2022-07-23T04:04:23;13.47;;;6.00;;
70335;SDS011;57756;47.408;18.940;2022-07-23T04:06:49;11.20;;;5.50;;
70335;SDS011;57756;47.408;18.940;2022-07-23T04:09:14;14.33;;;5.87;;
70335;SDS011;57756;47.408;18.940;2022-07-23T04:11:40;16.23;;;6.18;;
70335;SDS011;57756;47.408;18.940;2022-07-23T04:14:05;16.87;;;6.00;;
70335;SDS011;57756;47.408;18.940;2022-07-23T04:16:32;26.02;;;7.78;;
70335;SDS011;57756;47.408;18.940;2022-07-23T04:18:57;26.03;;;8.10;;
70335;SDS011;57756;47.408;18.940;2022-07-23T04:21:23;36.05;;;9.57;;
70335;SDS011;57756;47.408;18.940;2022-07-23T04:23:49;10.37;;;5.83;;
70335;SDS011;57756;47.408;18.940;2022-07-23T04:26:15;21.50;;;7.25;;
70335;SDS011;57756;47.408;18.940;2022-07-23T04:28:40;12.60;;;5.70;;
70335;SDS011;57756;47.408;18.940;2022-07-23T04:31:06;19.37;;;7.23;;
70335;SDS011;57756;47.408;18.940;2022-07-23T04:33:32;15.07;;;7.40;;
70335;SDS011;57756;47.408;18.940;2022-07-23T04:35:58;14.43;;;6.40;;
70335;SDS011;57756;47.408;18.940;2022-07-23T04:38:23;13.35;;;6.53;;
70335;SDS011;57756;47.408;18.940;2022-07-23T04:40:49;11.53;;;6.13;;
70335;SDS011;57756;47.408;18.940;2022-07-23T04:43:14;10.23;;;6.80;;
70335;SDS011;57756;47.408;18.940;2022-07-23T04:45:40;11.23;;;6.17;;
70335;SDS011;57756;47.408;18.940;2022-07-23T04:48:06;11.43;;;6.05;;
70335;SDS011;57756;47.408;18.940;2022-07-23T04:50:32;15.23;;;6.70;;
70335;SDS011;57756;47.408;18.940;2022-07-23T04:52:57;17.77;;;7.10;;
70335;SDS011;57756;47.408;18.940;2022-07-23T04:55:23;23.57;;;7.97;;
70335;SDS011;57756;47.408;18.940;2022-07-23T04:57:48;21.87;;;7.87;;
70335;SDS011;57756;47.408;18.940;2022-07-23T05:00:14;20.70;;;6.70;;
70335;SDS011;57756;47.408;18.940;2022-07-23T05:02:40;19.52;;;7.63;;
70335;SDS011;57756;47.408;18.940;2022-07-23T05:05:05;10.93;;;5.67;;
70335;SDS011;57756;47.408;18.940;2022-07-23T05:07:31;10.80;;;5.55;;
70335;SDS011;57756;47.408;18.940;2022-07-23T05:09:57;16.07;;;5.70;;
70335;SDS011;57756;47.408;18.940;2022-07-23T05:12:22;13.73;;;5.83;;
70335;SDS011;57756;47.408;18.940;2022-07-23T05:14:48;10.10;;;4.80;;
70335;SDS011;57756;47.408;18.940;2022-07-23T05:17:14;11.15;;;5.60;;
70335;SDS011;57756;47.408;18.940;2022-07-23T05:19:39;11.03;;;5.87;;
70335;SDS011;57756;47.408;18.940;2022-07-23T05:22:05;11.53;;;6.03;;
70335;SDS011;57756;47.408;18.940;2022-07-23T05:24:30;11.98;;;6.20;;
70335;SDS011;57756;47.408;18.940;2022-07-23T05:26:56;10.37;;;5.90;;
70335;SDS011;57756;47.408;18.940;2022-07-23T05:29:21;8.07;;;5.20;;
70335;SDS011;57756;47.408;18.940;2022-07-23T05:31:47;10.73;;;5.60;;
70335;SDS011;57756;47.408;18.940;2022-07-23T05:34:12;8.13;;;5.60;;
70335;SDS011;57756;47.408;18.940;2022-07-23T05:36:38;10.73;;;6.37;;
70335;SDS011;57756;47.408;18.940;2022-07-23T05:39:04;11.93;;;5.70;;
70335;SDS011;57756;47.408;18.940;2022-07-23T05:41:29;13.60;;;5.68;;
70335;SDS011;57756;47.408;18.940;2022-07-23T05:43:55;9.63;;;5.60;;
70335;SDS011;57756;47.408;18.940;2022-07-23T05:46:21;12.48;;;6.15;;
70335;SDS011;57756;47.408;18.940;2022-07-23T05:48:47;14.83;;;6.10;;
70335;SDS011;57756;47.408;18.940;2022-07-23T05:51:24;7.20;;;5.57;;
70335;SDS011;57756;47.408;18.940;2022-07-23T05:53:50;10.32;;;5.90;;
70335;SDS011;57756;47.408;18.940;2022-07-23T05:56:16;10.07;;;5.40;;
70335;SDS011;57756;47.408;18.940;2022-07-23T05:58:42;10.85;;;5.63;;
70335;SDS011;57756;47.408;18.940;2022-07-23T06:01:08;11.02;;;6.20;;
70335;SDS011;57756;47.408;18.940;2022-07-23T06:03:34;10.00;;;5.60;;
70335;SDS011;57756;47.408;18.940;2022-07-23T06:06:00;13.03;;;6.10;;
70335;SDS011;57756;47.408;18.940;2022-07-23T06:08:25;13.10;;;5.67;;
70335;SDS011;57756;47.408;18.940;2022-07-23T06:10:51;11.98;;;5.53;;
70335;SDS011;57756;47.408;18.940;2022-07-23T06:13:17;11.80;;;6.00;;
70335;SDS011;57756;47.408;18.940;2022-07-23T06:15:43;12.43;;;5.97;;
70335;SDS011;57756;47.408;18.940;2022-07-23T06:18:09;11.60;;;5.63;;
70335;SDS011;57756;47.408;18.940;2022-07-23T06:20:34;10.37;;;6.17;;
70335;SDS011;57756;47.408;18.940;2022-07-23T06:23:00;13.77;;;5.85;;
70335;SDS011;57756;47.408;18.940;2022-07-23T06:25:25;10.07;;;5.60;;
70335;SDS011;57756;47.408;18.940;2022-07-23T06:27:51;9.23;;;5.82;;
70335;SDS011;57756;47.408;18.940;2022-07-23T06:30:17;11.70;;;5.90;;
70335;SDS011;57756;47.408;18.940;2022-07-23T06:32:43;7.45;;;5.03;;
70335;SDS011;57756;47.408;18.940;2022-07-23T06:35:12;10.90;;;6.13;;
70335;SDS011;57756;47.408;18.940;2022-07-23T06:37:38;14.25;;;5.80;;
70335;SDS011;57756;47.408;18.940;2022-07-23T06:40:03;11.00;;;5.60;;
70335;SDS011;57756;47.408;18.940;2022-07-23T06:42:30;9.73;;;5.15;;
70335;SDS011;57756;47.408;18.940;2022-07-23T06:44:55;9.23;;;4.73;;
70335;SDS011;57756;47.408;18.940;2022-07-23T06:47:21;11.90;;;5.10;;
70335;SDS011;57756;47.408;18.940;2022-07-23T06:49:46;7.77;;;4.80;;
70335;SDS011;57756;47.408;18.940;2022-07-23T06:52:12;11.20;;;4.97;;
70335;SDS011;57756;47.408;18.940;2022-07-23T06:54:38;11.97;;;5.33;;
70335;SDS011;57756;47.408;18.940;2022-07-23T06:57:03;10.87;;;5.10;;
70335;SDS011;57756;47.408;18.940;2022-07-23T06:59:29;11.82;;;4.90;;
70335;SDS011;57756;47.408;18.940;2022-07-23T07:01:54;10.50;;;5.00;;
70335;SDS011;57756;47.408;18.940;2022-07-23T07:04:20;10.15;;;4.75;;
70335;SDS011;57756;47.408;18.940;2022-07-23T07:06:45;9.27;;;5.33;;
70335;SDS011;57756;47.408;18.940;2022-07-23T07:09:11;10.83;;;5.20;;
70335;SDS011;57756;47.408;18.940;2022-07-23T07:11:36;9.80;;;5.22;;
70335;SDS011;57756;47.408;18.940;2022-07-23T07:14:02;10.27;;;4.37;;
70335;SDS011;57756;47.408;18.940;2022-07-23T07:16:29;11.43;;;5.15;;
70335;SDS011;57756;47.408;18.940;2022-07-23T07:18:54;11.67;;;5.47;;
70335;SDS011;57756;47.408;18.940;2022-07-23T07:21:20;11.38;;;5.22;;
70335;SDS011;57756;47.408;18.940;2022-07-23T07:23:46;8.93;;;4.93;;
70335;SDS011;57756;47.408;18.940;2022-07-23T07:26:11;11.98;;;5.45;;
70335;SDS011;57756;47.408;18.940;2022-07-23T07:28:37;10.17;;;5.37;;
70335;SDS011;57756;47.408;18.940;2022-07-23T07:31:03;11.43;;;5.00;;
70335;SDS011;57756;47.408;18.940;2022-07-23T07:33:28;11.23;;;5.07;;
70335;SDS011;57756;47.408;18.940;2022-07-23T07:35:54;11.93;;;5.47;;
70335;SDS011;57756;47.408;18.940;2022-07-23T07:38:19;13.47;;;5.40;;
70335;SDS011;57756;47.408;18.940;2022-07-23T07:40:45;8.87;;;5.00;;
70335;SDS011;57756;47.408;18.940;2022-07-23T07:43:10;11.00;;;5.03;;
70335;SDS011;57756;47.408;18.940;2022-07-23T07:45:36;8.27;;;4.97;;
70335;SDS011;57756;47.408;18.940;2022-07-23T07:48:02;9.45;;;4.60;;
70335;SDS011;57756;47.408;18.940;2022-07-23T07:50:27;8.43;;;4.80;;
70335;SDS011;57756;47.408;18.940;2022-07-23T07:52:53;11.43;;;5.05;;
70335;SDS011;57756;47.408;18.940;2022-07-23T07:55:18;8.43;;;4.93;;
70335;SDS011;57756;47.408;18.940;2022-07-23T07:57:44;8.07;;;4.97;;
70335;SDS011;57756;47.408;18.940;2022-07-23T08:00:10;8.55;;;5.10;;
70335;SDS011;57756;47.408;18.940;2022-07-23T08:02:42;5.97;;;4.17;;
70335;SDS011;57756;47.408;18.940;2022-07-23T08:05:11;9.05;;;5.13;;
70335;SDS011;57756;47.408;18.940;2022-07-23T08:07:37;8.40;;;5.10;;
70335;SDS011;57756;47.408;18.940;2022-07-23T08:10:05;11.48;;;5.30;;
70335;SDS011;57756;47.408;18.940;2022-07-23T08:12:45;7.65;;;4.32;;
70335;SDS011;57756;47.408;18.940;2022-07-23T08:15:16;7.60;;;4.60;;
70335;SDS011;57756;47.408;18.940;2022-07-23T08:17:43;11.60;;;4.82;;
70335;SDS011;57756;47.408;18.940;2022-07-23T08:20:10;12.10;;;5.90;;
70335;SDS011;57756;47.408;18.940;2022-07-23T08:25:20;9.95;;;4.95;;
70335;SDS011;57756;47.408;18.940;2022-07-23T08:27:47;13.60;;;5.63;;
70335;SDS011;57756;47.408;18.940;2022-07-23T08:30:14;6.70;;;4.82;;
70335;SDS011;57756;47.408;18.940;2022-07-23T08:35:14;11.07;;;5.28;;
70335;SDS011;57756;47.408;18.940;2022-07-23T08:37:40;7.97;;;5.30;;
70335;SDS011;57756;47.408;18.940;2022-07-23T08:40:06;11.18;;;5.43;;
70335;SDS011;57756;47.408;18.940;2022-07-23T08:42:32;9.43;;;4.77;;
70335;SDS011;57756;47.408;18.940;2022-07-23T08:45:00;8.20;;;4.63;;
70335;SDS011;57756;47.408;18.940;2022-07-23T08:47:27;10.25;;;5.00;;
70335;SDS011;57756;47.408;18.940;2022-07-23T08:49:54;8.82;;;4.57;;
70335;SDS011;57756;47.408;18.940;2022-07-23T08:52:21;9.90;;;4.88;;
70335;SDS011;57756;47.408;18.940;2022-07-23T08:54:47;11.97;;;4.93;;
70335;SDS011;57756;47.408;18.940;2022-07-23T08:57:13;12.73;;;4.60;;
70335;SDS011;57756;47.408;18.940;2022-07-23T08:59:40;6.82;;;4.63;;
70335;SDS011;57756;47.408;18.940;2022-07-23T09:02:06;16.30;;;5.32;;
70335;SDS011;57756;47.408;18.940;2022-07-23T09:04:31;6.50;;;4.63;;
70335;SDS011;57756;47.408;18.940;2022-07-23T09:06:57;9.03;;;4.30;;
70335;SDS011;57756;47.408;18.940;2022-07-23T09:09:23;5.75;;;4.53;;
70335;SDS011;57756;47.408;18.940;2022-07-23T09:12:01;8.25;;;4.10;;
70335;SDS011;57756;47.408;18.940;2022-07-23T09:14:38;11.07;;;4.60;;
70335;SDS011;57756;47.408;18.940;2022-07-23T09:17:12;6.65;;;5.05;;
70335;SDS011;57756;47.408;18.940;2022-07-23T09:19:39;7.77;;;4.60;;
70335;SDS011;57756;47.408;18.940;2022-07-23T09:22:22;9.57;;;4.72;;
70335;SDS011;57756;47.408;18.940;2022-07-23T09:27:45;6.93;;;5.10;;
70335;SDS011;57756;47.408;18.940;2022-07-23T09:30:20;7.63;;;5.10;;
70335;SDS011;57756;47.408;18.940;2022-07-23T09:38:28;9.77;;;5.20;;
70335;SDS011;57756;47.408;18.940;2022-07-23T09:41:06;12.00;;;4.87;;
70335;SDS011;57756;47.408;18.940;2022-07-23T09:43:32;9.27;;;5.03;;
70335;SDS011;57756;47.408;18.940;2022-07-23T09:48:42;6.77;;;4.63;;
70335;SDS011;57756;47.408;18.940;2022-07-23T09:51:07;12.05;;;5.63;;
70335;SDS011;57756;47.408;18.940;2022-07-23T09:53:33;12.83;;;5.57;;
70335;SDS011;57756;47.408;18.940;2022-07-23T09:56:01;9.23;;;4.95;;
70335;SDS011;57756;47.408;18.940;2022-07-23T09:58:27;10.80;;;5.35;;
70335;SDS011;57756;47.408;18.940;2022-07-23T10:00:55;7.55;;;4.82;;
70335;SDS011;57756;47.408;18.940;2022-07-23T10:03:21;7.13;;;3.93;;
70335;SDS011;57756;47.408;18.940;2022-07-23T10:05:48;6.95;;;4.50;;
70335;SDS011;57756;47.408;18.940;2022-07-23T10:08:16;7.13;;;5.30;;
70335;SDS011;57756;47.408;18.940;2022-07-23T10:10:47;12.32;;;4.53;;
70335;SDS011;57756;47.408;18.940;2022-07-23T10:13:16;10.00;;;4.53;;
70335;SDS011;57756;47.408;18.940;2022-07-23T10:16:00;5.90;;;4.90;;
70335;SDS011;57756;47.408;18.940;2022-07-23T10:18:26;7.13;;;4.75;;
70335;SDS011;57756;47.408;18.940;2022-07-23T10:20:52;9.30;;;5.13;;
70335;SDS011;57756;47.408;18.940;2022-07-23T10:29:00;6.82;;;4.60;;
70335;SDS011;57756;47.408;18.940;2022-07-23T10:31:35;10.27;;;4.68;;
70335;SDS011;57756;47.408;18.940;2022-07-23T10:34:24;10.60;;;4.70;;
70335;SDS011;57756;47.408;18.940;2022-07-23T10:39:26;8.05;;;4.70;;
70335;SDS011;57756;47.408;18.940;2022-07-23T10:44:41;8.68;;;4.00;;
70335;SDS011;57756;47.408;18.940;2022-07-23T10:47:09;7.60;;;4.43;;
70335;SDS011;57756;47.408;18.940;2022-07-23T10:49:45;9.00;;;4.50;;
70335;SDS011;57756;47.408;18.940;2022-07-23T10:57:06;7.13;;;3.88;;
70335;SDS011;57756;47.408;18.940;2022-07-23T11:02:43;7.40;;;4.88;;
70335;SDS011;57756;47.408;18.940;2022-07-23T11:05:11;5.70;;;4.32;;
70335;SDS011;57756;47.408;18.940;2022-07-23T11:37:06;6.22;;;4.78;;
70335;SDS011;57756;47.408;18.940;2022-07-23T11:39:33;9.48;;;5.13;;
70335;SDS011;57756;47.408;18.940;2022-07-23T11:42:00;7.88;;;5.07;;
70335;SDS011;57756;47.408;18.940;2022-07-23T11:44:27;10.88;;;6.00;;
70335;SDS011;57756;47.408;18.940;2022-07-23T11:46:57;8.57;;;5.03;;
70335;SDS011;57756;47.408;18.940;2022-07-23T11:49:24;6.40;;;4.50;;
70335;SDS011;57756;47.408;18.940;2022-07-23T11:52:03;7.38;;;5.70;;
70335;SDS011;57756;47.408;18.940;2022-07-23T11:54:30;8.70;;;5.50;;
70335;SDS011;57756;47.408;18.940;2022-07-23T11:56:56;9.15;;;5.53;;
70335;SDS011;57756;47.408;18.940;2022-07-23T11:59:23;8.53;;;4.60;;
70335;SDS011;57756;47.408;18.940;2022-07-23T12:02:01;7.75;;;4.90;;
70335;SDS011;57756;47.408;18.940;2022-07-23T12:04:41;6.63;;;5.13;;
70335;SDS011;57756;47.408;18.940;2022-07-23T12:09:54;6.35;;;5.45;;
70335;SDS011;57756;47.408;18.940;2022-07-23T12:12:20;8.97;;;5.00;;
70335;SDS011;57756;47.408;18.940;2022-07-23T12:14:53;7.60;;;5.15;;
70335;SDS011;57756;47.408;18.940;2022-07-23T12:17:21;8.15;;;5.47;;
70335;SDS011;57756;47.408;18.940;2022-07-23T12:19:51;7.28;;;5.60;;
70335;SDS011;57756;47.408;18.940;2022-07-23T12:22:17;7.22;;;5.45;;
70335;SDS011;57756;47.408;18.940;2022-07-23T12:24:54;8.33;;;5.93;;
70335;SDS011;57756;47.408;18.940;2022-07-23T12:27:23;7.07;;;5.38;;
70335;SDS011;57756;47.408;18.940;2022-07-23T12:29:49;8.30;;;6.53;;
70335;SDS011;57756;47.408;18.940;2022-07-23T12:34:45;7.57;;;5.32;;
70335;SDS011;57756;47.408;18.940;2022-07-23T12:39:57;8.80;;;4.97;;
70335;SDS011;57756;47.408;18.940;2022-07-23T12:42:23;9.97;;;6.10;;
70335;SDS011;57756;47.408;18.940;2022-07-23T12:45:02;10.20;;;5.70;;
70335;SDS011;57756;47.408;18.940;2022-07-23T12:47:29;7.80;;;5.93;;
70335;SDS011;57756;47.408;18.940;2022-07-23T12:49:55;8.33;;;5.17;;
70335;SDS011;57756;47.408;18.940;2022-07-23T12:52:21;9.50;;;5.35;;
70335;SDS011;57756;47.408;18.940;2022-07-23T12:54:46;7.97;;;5.30;;
70335;SDS011;57756;47.408;18.940;2022-07-23T12:57:12;7.60;;;5.10;;
70335;SDS011;57756;47.408;18.940;2022-07-23T12:59:37;7.30;;;5.07;;
70335;SDS011;57756;47.408;18.940;2022-07-23T13:02:03;6.93;;;5.00;;
70335;SDS011;57756;47.408;18.940;2022-07-23T13:04:29;9.23;;;4.88;;
70335;SDS011;57756;47.408;18.940;2022-07-23T13:06:57;6.65;;;4.88;;
70335;SDS011;57756;47.408;18.940;2022-07-23T13:09:25;6.80;;;4.78;;
70335;SDS011;57756;47.408;18.940;2022-07-23T13:11:53;9.33;;;5.90;;
70335;SDS011;57756;47.408;18.940;2022-07-23T13:14:20;7.70;;;4.90;;
70335;SDS011;57756;47.408;18.940;2022-07-23T13:16:47;9.60;;;5.40;;
70335;SDS011;57756;47.408;18.940;2022-07-23T13:19:14;11.98;;;5.55;;
70335;SDS011;57756;47.408;18.940;2022-07-23T13:21:40;6.93;;;5.20;;
70335;SDS011;57756;47.408;18.940;2022-07-23T13:24:06;5.90;;;5.30;;
70335;SDS011;57756;47.408;18.940;2022-07-23T13:26:32;7.80;;;5.68;;
70335;SDS011;57756;47.408;18.940;2022-07-23T13:28:58;7.30;;;5.00;;
70335;SDS011;57756;47.408;18.940;2022-07-23T13:31:23;8.07;;;5.83;;
70335;SDS011;57756;47.408;18.940;2022-07-23T13:33:49;7.23;;;4.87;;
70335;SDS011;57756;47.408;18.940;2022-07-23T13:36:15;7.50;;;5.20;;
70335;SDS011;57756;47.408;18.940;2022-07-23T13:38:41;7.33;;;5.80;;
70335;SDS011;57756;47.408;18.940;2022-07-23T13:41:06;8.73;;;5.68;;
70335;SDS011;57756;47.408;18.940;2022-07-23T13:43:32;7.53;;;6.00;;
70335;SDS011;57756;47.408;18.940;2022-07-23T13:45:58;10.98;;;5.95;;
70335;SDS011;57756;47.408;18.940;2022-07-23T13:48:24;8.23;;;6.30;;
70335;SDS011;57756;47.408;18.940;2022-07-23T13:50:50;9.53;;;5.47;;
70335;SDS011;57756;47.408;18.940;2022-07-23T13:53:17;10.82;;;5.35;;
70335;SDS011;57756;47.408;18.940;2022-07-23T13:55:44;7.10;;;5.35;;
70335;SDS011;57756;47.408;18.940;2022-07-23T13:58:11;7.32;;;5.75;;
70335;SDS011;57756;47.408;18.940;2022-07-23T14:00:39;6.23;;;5.20;;
70335;SDS011;57756;47.408;18.940;2022-07-23T14:03:06;9.02;;;5.00;;
70335;SDS011;57756;47.408;18.940;2022-07-23T14:05:32;6.32;;;4.97;;
70335;SDS011;57756;47.408;18.940;2022-07-23T14:07:58;6.70;;;4.93;;
70335;SDS011;57756;47.408;18.940;2022-07-23T14:10:23;7.13;;;4.80;;
70335;SDS011;57756;47.408;18.940;2022-07-23T14:12:49;5.97;;;5.37;;
70335;SDS011;57756;47.408;18.940;2022-07-23T14:15:17;6.55;;;5.80;;
70335;SDS011;57756;47.408;18.940;2022-07-23T14:17:44;7.15;;;5.03;;
70335;SDS011;57756;47.408;18.940;2022-07-23T14:20:10;7.05;;;5.05;;
70335;SDS011;57756;47.408;18.940;2022-07-23T14:22:37;7.00;;;5.60;;
70335;SDS011;57756;47.408;18.940;2022-07-23T14:25:03;6.53;;;4.80;;
70335;SDS011;57756;47.408;18.940;2022-07-23T14:27:29;7.47;;;5.15;;
70335;SDS011;57756;47.408;18.940;2022-07-23T14:29:55;8.40;;;5.10;;
70335;SDS011;57756;47.408;18.940;2022-07-23T14:32:21;6.45;;;4.55;;
70335;SDS011;57756;47.408;18.940;2022-07-23T14:34:47;10.88;;;5.35;;
70335;SDS011;57756;47.408;18.940;2022-07-23T14:37:13;7.87;;;5.53;;
70335;SDS011;57756;47.408;18.940;2022-07-23T14:39:39;5.45;;;4.88;;
70335;SDS011;57756;47.408;18.940;2022-07-23T14:42:06;6.07;;;5.10;;
70335;SDS011;57756;47.408;18.940;2022-07-23T14:44:31;7.95;;;5.75;;
70335;SDS011;57756;47.408;18.940;2022-07-23T14:46:57;6.17;;;5.30;;
70335;SDS011;57756;47.408;18.940;2022-07-23T14:49:23;7.07;;;6.00;;
70335;SDS011;57756;47.408;18.940;2022-07-23T14:51:48;9.32;;;6.72;;
70335;SDS011;57756;47.408;18.940;2022-07-23T14:54:14;9.27;;;7.20;;
70335;SDS011;57756;47.408;18.940;2022-07-23T14:56:40;9.48;;;7.47;;
70335;SDS011;57756;47.408;18.940;2022-07-23T14:59:06;10.23;;;8.93;;
70335;SDS011;57756;47.408;18.940;2022-07-23T15:01:32;12.32;;;11.13;;
70335;SDS011;57756;47.408;18.940;2022-07-23T15:03:59;12.38;;;11.20;;
70335;SDS011;57756;47.408;18.940;2022-07-23T15:06:24;16.20;;;12.73;;
70335;SDS011;57756;47.408;18.940;2022-07-23T15:08:50;14.80;;;12.07;;
70335;SDS011;57756;47.408;18.940;2022-07-23T15:11:16;13.23;;;11.68;;
70335;SDS011;57756;47.408;18.940;2022-07-23T15:13:42;15.37;;;11.33;;
70335;SDS011;57756;47.408;18.940;2022-07-23T15:16:07;12.75;;;11.45;;
70335;SDS011;57756;47.408;18.940;2022-07-23T15:18:33;12.03;;;10.83;;
70335;SDS011;57756;47.408;18.940;2022-07-23T15:20:59;13.65;;;11.35;;
70335;SDS011;57756;47.408;18.940;2022-07-23T15:23:26;13.18;;;11.38;;
70335;SDS011;57756;47.408;18.940;2022-07-23T15:25:53;16.30;;;12.23;;
70335;SDS011;57756;47.408;18.940;2022-07-23T15:28:19;14.68;;;12.00;;
70335;SDS011;57756;47.408;18.940;2022-07-23T15:30:45;21.27;;;11.07;;
70335;SDS011;57756;47.408;18.940;2022-07-23T15:33:11;15.90;;;9.98;;
70335;SDS011;57756;47.408;18.940;2022-07-23T15:35:36;17.80;;;8.70;;
70335;SDS011;57756;47.408;18.940;2022-07-23T15:38:02;17.60;;;8.60;;